Time;durP1;ratioP1;P1;durP2;ratioP2;P2;SDS_P1;SDS_P2;PMS_P1;PMS_P2;Temp;Humidity;BMP_temperature;BMP_pressure;BME280_temperature;BME280_humidity;BME280_pressure;Samples;Min_cycle;Max_cycle;Signal;HPM_P1;HPM_P2
2022/01/25 00:39:40;;;;;;;23.57;10.53;;;;;;;;;;6188901;23;20193;-91
2022/01/25 01:03:21;;;;;;;22.37;10.10;;;;;;;;;;6155078;23;20212;-91
2022/01/25 01:06:26;;;;;;;25.57;10.17;;;;;;;;;;6186414;23;20229;-89
2022/01/25 01:09:34;;;;;;;23.07;9.73;;;;;;;;;;6184445;23;20176;-91
2022/01/25 01:13:11;;;;;;;26.47;11.07;;;;;;;;;;6184766;23;20172;-90
2022/01/25 01:16:37;;;;;;;28.90;12.33;;;;;;;;;;6186338;23;20494;-89
2022/01/25 01:30:02;;;;;;;52.07;12.40;;;;;;;;;;6185207;23;20152;-90
2022/01/25 01:37:01;;;;;;;41.80;12.47;;;;;;;;;;6160621;23;20184;-90
2022/01/25 01:40:21;;;;;;;73.57;13.03;;;;;;;;;;6181946;23;20195;-90
2022/01/25 01:46:32;;;;;;;77.27;12.90;;;;;;;;;;6197434;23;20196;-89
2022/01/25 01:49:42;;;;;;;65.97;12.40;;;;;;;;;;6186896;23;20176;-89
2022/01/25 01:52:50;;;;;;;58.23;11.50;;;;;;;;;;6186513;23;20171;-89
2022/01/25 01:55:55;;;;;;;99.83;12.57;;;;;;;;;;6189021;23;20263;-89
2022/01/25 01:59:04;;;;;;;78.17;12.93;;;;;;;;;;6185801;23;20195;-88
2022/01/25 02:02:09;;;;;;;86.57;12.80;;;;;;;;;;6185435;23;20180;-89
2022/01/25 02:08:13;;;;;;;79.57;11.90;;;;;;;;;;6160415;23;20224;-89
2022/01/25 02:11:19;;;;;;;86.63;12.97;;;;;;;;;;6185955;23;20624;-88
2022/01/25 02:14:25;;;;;;;54.53;11.70;;;;;;;;;;6185822;23;20188;-89
2022/01/25 02:17:53;;;;;;;73.70;11.53;;;;;;;;;;6186982;23;20164;-91
2022/01/25 02:24:22;;;;;;;80.30;12.13;;;;;;;;;;6184406;23;20180;-88
2022/01/25 02:27:28;;;;;;;136.30;13.83;;;;;;;;;;6203728;23;20148;-90
2022/01/25 02:30:33;;;;;;;85.17;13.13;;;;;;;;;;6184126;23;20164;-89
2022/01/25 02:33:38;;;;;;;96.73;12.73;;;;;;;;;;6184979;23;20167;-90
2022/01/25 02:36:44;;;;;;;95.50;13.30;;;;;;;;;;6183399;23;20175;-88
2022/01/25 02:39:49;;;;;;;103.73;12.73;;;;;;;;;;6185195;23;20192;-89
2022/01/25 02:42:54;;;;;;;69.03;12.10;;;;;;;;;;6187179;23;20180;-89
2022/01/25 02:48:29;;;;;;;76.60;12.40;;;;;;;;;;6183667;23;20264;-90
2022/01/25 02:49:44;;;;;;;36.87;10.30;;;;;;;;;;6187606;23;20176;-89
2022/01/25 02:52:51;;;;;;;32.07;9.97;;;;;;;;;;6186708;23;20272;-88
2022/01/25 02:55:57;;;;;;;49.07;10.57;;;;;;;;;;6184865;23;20210;-88
2022/01/25 02:59:02;;;;;;;48.00;9.63;;;;;;;;;;6187243;23;20196;-89
2022/01/25 03:02:08;;;;;;;65.37;11.30;;;;;;;;;;6185893;23;20249;-89
2022/01/25 03:05:14;;;;;;;35.37;9.77;;;;;;;;;;6187301;23;20200;-88
2022/01/25 03:08:21;;;;;;;21.47;9.00;;;;;;;;;;6186064;23;20190;-90
2022/01/25 03:11:26;;;;;;;22.37;9.47;;;;;;;;;;6184834;23;20223;-90
2022/01/25 03:14:34;;;;;;;23.47;9.03;;;;;;;;;;6186907;23;20172;-89
2022/01/25 03:17:45;;;;;;;24.77;9.10;;;;;;;;;;6186925;23;20176;-89
2022/01/25 03:20:59;;;;;;;21.07;9.70;;;;;;;;;;6186688;23;20183;-88
2022/01/25 03:24:07;;;;;;;20.87;9.27;;;;;;;;;;6185911;23;20484;-89
2022/01/25 03:27:12;;;;;;;21.40;9.07;;;;;;;;;;6185761;23;20232;-89
2022/01/25 03:30:17;;;;;;;21.17;9.50;;;;;;;;;;6181003;23;20155;-89
2022/01/25 03:33:23;;;;;;;20.13;9.20;;;;;;;;;;6184946;23;20171;-89
2022/01/25 03:36:28;;;;;;;24.20;10.17;;;;;;;;;;6201907;23;20156;-89
2022/01/25 03:39:34;;;;;;;28.50;10.17;;;;;;;;;;6182489;23;20274;-89
2022/01/25 03:42:39;;;;;;;23.27;10.37;;;;;;;;;;6182554;23;20160;-89
2022/01/25 03:45:57;;;;;;;31.97;11.03;;;;;;;;;;6181738;23;20200;-90
2022/01/25 03:52:29;;;;;;;27.47;10.97;;;;;;;;;;6183809;23;20624;-88
2022/01/25 03:55:36;;;;;;;22.90;11.17;;;;;;;;;;6183261;23;20172;-90
2022/01/25 03:58:41;;;;;;;27.43;11.30;;;;;;;;;;6183953;23;20565;-90
2022/01/25 04:01:46;;;;;;;30.57;11.53;;;;;;;;;;6184486;23;20225;-89
2022/01/25 04:04:51;;;;;;;27.03;12.10;;;;;;;;;;6183651;23;20233;-88
2022/01/25 04:07:58;;;;;;;28.90;12.30;;;;;;;;;;6184031;23;20184;-89
2022/01/25 04:11:05;;;;;;;33.70;12.00;;;;;;;;;;6183793;23;20172;-90
2022/01/25 04:14:10;;;;;;;32.63;12.50;;;;;;;;;;6181929;23;20167;-89
2022/01/25 04:17:19;;;;;;;31.13;13.27;;;;;;;;;;6181929;23;20168;-89
2022/01/25 04:20:28;;;;;;;29.90;12.63;;;;;;;;;;6182385;23;20198;-90
2022/01/25 04:26:58;;;;;;;31.77;13.27;;;;;;;;;;6182846;23;20168;-92
2022/01/25 04:30:05;;;;;;;32.77;12.90;;;;;;;;;;6183075;23;20224;-89
2022/01/25 04:33:19;;;;;;;36.23;14.00;;;;;;;;;;6183441;23;20156;-90
2022/01/25 04:36:53;;;;;;;32.23;13.93;;;;;;;;;;6181090;23;20478;-90
2022/01/25 04:50:04;;;;;;;34.30;13.53;;;;;;;;;;6183484;23;20171;-91
2022/01/25 04:53:16;;;;;;;32.00;12.90;;;;;;;;;;6184392;23;20180;-89
2022/01/25 04:56:27;;;;;;;29.87;12.77;;;;;;;;;;6183585;23;20203;-89
2022/01/25 04:59:39;;;;;;;30.57;13.33;;;;;;;;;;6187419;23;20188;-90
2022/01/25 05:02:52;;;;;;;25.83;10.87;;;;;;;;;;6184339;23;20172;-90
2022/01/25 05:06:04;;;;;;;26.93;11.50;;;;;;;;;;6184513;23;20175;-89
2022/01/25 05:09:11;;;;;;;28.00;11.93;;;;;;;;;;6184108;23;20191;-90
2022/01/25 05:12:17;;;;;;;31.50;11.83;;;;;;;;;;6204707;23;20148;-89
2022/01/25 05:15:38;;;;;;;27.50;12.13;;;;;;;;;;6185827;23;20201;-89
2022/01/25 05:18:46;;;;;;;27.63;11.87;;;;;;;;;;6183986;23;20183;-90
2022/01/25 05:22:05;;;;;;;25.73;10.67;;;;;;;;;;6181517;23;20216;-90
2022/01/25 05:25:10;;;;;;;26.97;12.10;;;;;;;;;;6182176;23;20172;-90
2022/01/25 05:28:15;;;;;;;32.27;12.73;;;;;;;;;;6184155;23;20151;-92
2022/01/25 05:31:23;;;;;;;28.53;12.37;;;;;;;;;;6182804;23;20183;-91
2022/01/25 05:34:28;;;;;;;31.90;13.10;;;;;;;;;;6182550;23;20172;-87
2022/01/25 05:37:39;;;;;;;32.60;13.10;;;;;;;;;;6183768;23;20168;-89
2022/01/25 05:40:46;;;;;;;30.20;13.70;;;;;;;;;;6182465;23;20524;-89
2022/01/25 05:47:25;;;;;;;37.97;14.43;;;;;;;;;;6184305;23;20183;-92
2022/01/25 05:50:30;;;;;;;47.20;15.63;;;;;;;;;;6184529;23;20179;-89
2022/01/25 05:53:35;;;;;;;33.47;14.67;;;;;;;;;;6184903;23;20192;-89
2022/01/25 05:56:40;;;;;;;37.17;14.97;;;;;;;;;;6183113;23;20196;-90
2022/01/25 05:59:46;;;;;;;39.23;16.07;;;;;;;;;;6183337;23;20175;-89
2022/01/25 06:02:55;;;;;;;44.27;16.43;;;;;;;;;;6185898;23;20172;-89
2022/01/25 06:06:00;;;;;;;42.87;16.03;;;;;;;;;;6184644;23;20619;-90
2022/01/25 06:09:05;;;;;;;37.60;15.97;;;;;;;;;;6184418;23;20179;-88
2022/01/25 06:12:11;;;;;;;36.97;16.23;;;;;;;;;;6183535;23;20176;-90
2022/01/25 06:15:16;;;;;;;42.07;16.83;;;;;;;;;;6184565;23;20841;-90
2022/01/25 06:18:25;;;;;;;43.47;16.83;;;;;;;;;;6187835;23;20176;-89
2022/01/25 06:21:30;;;;;;;42.90;16.90;;;;;;;;;;6184749;23;20192;-89
2022/01/25 06:24:35;;;;;;;40.43;17.50;;;;;;;;;;6185308;23;20215;-90
2022/01/25 06:27:41;;;;;;;42.00;14.70;;;;;;;;;;6185582;23;20163;-89
2022/01/25 06:30:46;;;;;;;41.43;17.03;;;;;;;;;;6186825;23;20236;-89
2022/01/25 06:33:53;;;;;;;39.13;15.77;;;;;;;;;;6186842;23;20163;-87
2022/01/25 06:36:58;;;;;;;39.70;16.23;;;;;;;;;;6184091;23;20215;-89
2022/01/25 06:40:04;;;;;;;38.00;15.93;;;;;;;;;;6184919;23;20506;-90
2022/01/25 06:43:09;;;;;;;42.90;16.93;;;;;;;;;;6183642;23;20167;-90
2022/01/25 06:46:16;;;;;;;36.30;14.80;;;;;;;;;;6183969;23;20168;-88
2022/01/25 06:49:26;;;;;;;37.97;15.87;;;;;;;;;;6184627;23;20219;-90
2022/01/25 06:52:31;;;;;;;39.77;15.83;;;;;;;;;;6180724;23;20160;-91
2022/01/25 06:55:37;;;;;;;37.17;15.90;;;;;;;;;;6182078;23;20163;-88
2022/01/25 06:58:42;;;;;;;38.77;16.10;;;;;;;;;;6182386;23;20193;-88
2022/01/25 07:01:47;;;;;;;39.17;16.43;;;;;;;;;;6180772;23;20199;-90
2022/01/25 07:04:53;;;;;;;41.30;15.40;;;;;;;;;;6182709;23;20175;-88
2022/01/25 07:07:58;;;;;;;39.70;15.87;;;;;;;;;;6180708;23;20175;-90
2022/01/25 07:11:04;;;;;;;40.00;14.60;;;;;;;;;;6182417;23;20205;-88
2022/01/25 07:14:18;;;;;;;38.17;15.77;;;;;;;;;;6183234;23;20171;-91
2022/01/25 07:17:24;;;;;;;36.43;15.37;;;;;;;;;;6186855;23;20192;-89
2022/01/25 07:20:31;;;;;;;35.37;15.43;;;;;;;;;;6184564;23;20638;-91
2022/01/25 07:23:36;;;;;;;41.50;16.20;;;;;;;;;;6181834;23;20180;-91
2022/01/25 07:26:42;;;;;;;102.97;33.47;;;;;;;;;;6180065;23;20183;-89
2022/01/25 07:29:48;;;;;;;39.53;16.27;;;;;;;;;;6180981;23;20164;-89
2022/01/25 07:32:55;;;;;;;37.30;15.43;;;;;;;;;;6183044;23;20188;-89
2022/01/25 07:36:01;;;;;;;37.23;15.53;;;;;;;;;;6182458;23;20194;-90
2022/01/25 07:39:06;;;;;;;31.90;14.03;;;;;;;;;;6181529;23;20215;-89
2022/01/25 07:42:12;;;;;;;38.53;16.00;;;;;;;;;;6180876;23;20231;-90
2022/01/25 07:45:26;;;;;;;35.10;15.10;;;;;;;;;;6181016;23;20215;-90
2022/01/25 07:48:32;;;;;;;32.67;14.20;;;;;;;;;;6182813;23;20164;-90
2022/01/25 07:51:38;;;;;;;36.63;15.13;;;;;;;;;;6182690;23;20227;-90
2022/01/25 07:54:43;;;;;;;33.87;14.80;;;;;;;;;;6179498;23;20179;-89
2022/01/25 07:57:48;;;;;;;33.63;14.57;;;;;;;;;;6180772;23;20220;-91
2022/01/25 08:00:53;;;;;;;31.20;14.43;;;;;;;;;;6178958;23;20195;-91
2022/01/25 08:03:58;;;;;;;36.77;15.40;;;;;;;;;;6179767;23;20176;-91
2022/01/25 08:07:05;;;;;;;34.17;14.43;;;;;;;;;;6180571;23;20168;-91
2022/01/25 08:10:11;;;;;;;34.77;14.47;;;;;;;;;;6180955;23;20167;-89
2022/01/25 08:13:19;;;;;;;34.77;14.73;;;;;;;;;;6179136;23;20172;-91
2022/01/25 08:16:24;;;;;;;35.80;14.90;;;;;;;;;;6180572;23;20176;-90
2022/01/25 08:19:31;;;;;;;35.60;14.43;;;;;;;;;;6182684;23;20172;-92
2022/01/25 08:22:37;;;;;;;37.47;15.47;;;;;;;;;;6182851;23;20261;-90
2022/01/25 08:25:43;;;;;;;38.63;16.50;;;;;;;;;;6180925;23;20219;-90
2022/01/25 08:28:48;;;;;;;38.07;15.50;;;;;;;;;;6181716;23;20212;-91
2022/01/25 08:31:53;;;;;;;39.13;15.30;;;;;;;;;;6179258;23;20164;-90
2022/01/25 08:34:58;;;;;;;40.37;15.77;;;;;;;;;;6181401;23;20159;-90
2022/01/25 08:38:05;;;;;;;41.13;16.30;;;;;;;;;;6180032;23;20187;-88
2022/01/25 08:41:10;;;;;;;41.73;17.13;;;;;;;;;;6179947;23;20194;-87
2022/01/25 08:44:15;;;;;;;43.43;17.03;;;;;;;;;;6181213;23;20167;-91
2022/01/25 08:47:21;;;;;;;45.10;17.37;;;;;;;;;;6181069;23;20171;-89
2022/01/25 08:50:26;;;;;;;44.47;16.80;;;;;;;;;;6180287;23;20192;-88
2022/01/25 08:53:34;;;;;;;45.67;17.70;;;;;;;;;;6180679;23;20242;-89
2022/01/25 08:56:41;;;;;;;45.27;18.07;;;;;;;;;;6180837;23;20245;-88
2022/01/25 08:59:46;;;;;;;49.10;17.63;;;;;;;;;;6180286;23;20176;-90
2022/01/25 09:02:51;;;;;;;42.03;17.33;;;;;;;;;;6183167;23;20180;-89
2022/01/25 09:05:57;;;;;;;46.20;18.27;;;;;;;;;;6178682;23;20163;-91
2022/01/25 09:09:05;;;;;;;49.03;18.03;;;;;;;;;;6182576;23;20196;-90
2022/01/25 09:12:11;;;;;;;55.33;18.23;;;;;;;;;;6180004;23;20253;-89
2022/01/25 09:15:17;;;;;;;51.97;18.83;;;;;;;;;;6179606;23;20176;-91
2022/01/25 09:18:23;;;;;;;53.17;19.23;;;;;;;;;;6177900;23;20187;-89
2022/01/25 09:21:29;;;;;;;59.70;20.53;;;;;;;;;;6180443;23;20364;-91
2022/01/25 09:24:38;;;;;;;54.63;19.40;;;;;;;;;;6178824;23;20172;-90
2022/01/25 09:27:43;;;;;;;51.63;19.50;;;;;;;;;;6179324;23;20250;-87
2022/01/25 09:30:49;;;;;;;51.03;19.47;;;;;;;;;;6179007;23;20164;-89
2022/01/25 09:33:54;;;;;;;52.13;19.17;;;;;;;;;;6181206;23;20243;-90
2022/01/25 09:36:59;;;;;;;56.33;20.50;;;;;;;;;;6178639;23;20224;-88
2022/01/25 09:40:07;;;;;;;54.90;19.90;;;;;;;;;;6179662;23;20172;-88
2022/01/25 09:43:12;;;;;;;61.30;21.57;;;;;;;;;;6181785;23;20216;-87
2022/01/25 09:46:17;;;;;;;55.17;20.33;;;;;;;;;;6180119;23;20246;-89
2022/01/25 09:49:24;;;;;;;49.97;19.60;;;;;;;;;;6183245;23;20171;-90
2022/01/25 09:52:29;;;;;;;55.73;21.17;;;;;;;;;;6184050;23;20172;-88
2022/01/25 09:55:40;;;;;;;55.57;20.53;;;;;;;;;;6183631;23;20156;-90
2022/01/25 09:58:45;;;;;;;63.13;21.53;;;;;;;;;;6184038;23;20176;-89
2022/01/25 10:01:51;;;;;;;64.00;21.77;;;;;;;;;;6182419;23;20661;-90
2022/01/25 10:04:56;;;;;;;57.60;20.97;;;;;;;;;;6183640;23;20674;-90
2022/01/25 10:08:02;;;;;;;55.43;20.87;;;;;;;;;;6181443;23;20192;-89
2022/01/25 10:11:10;;;;;;;60.97;21.80;;;;;;;;;;6183606;23;20208;-90
2022/01/25 10:14:23;;;;;;;59.43;20.70;;;;;;;;;;6181613;23;20607;-89
2022/01/25 10:17:35;;;;;;;57.67;21.10;;;;;;;;;;6182372;23;20212;-91
2022/01/25 10:20:41;;;;;;;60.53;21.43;;;;;;;;;;6182742;23;20175;-90
2022/01/25 10:24:07;;;;;;;51.63;19.63;;;;;;;;;;6182648;23;20207;-88
2022/01/25 10:27:13;;;;;;;48.97;19.67;;;;;;;;;;6184066;23;20288;-89
2022/01/25 10:30:18;;;;;;;50.20;20.00;;;;;;;;;;6183105;23;20682;-90
2022/01/25 10:33:30;;;;;;;49.00;18.83;;;;;;;;;;6183580;23;20183;-88
2022/01/25 10:36:35;;;;;;;49.47;19.27;;;;;;;;;;6183710;23;20219;-90
2022/01/25 10:39:42;;;;;;;48.93;19.13;;;;;;;;;;6183950;23;20196;-90
2022/01/25 10:42:49;;;;;;;48.03;19.27;;;;;;;;;;6183051;23;20198;-90
2022/01/25 10:46:12;;;;;;;46.87;18.60;;;;;;;;;;6183759;23;20171;-91
2022/01/25 10:49:17;;;;;;;46.53;18.63;;;;;;;;;;6181653;23;20171;-88
2022/01/25 10:52:27;;;;;;;43.60;17.70;;;;;;;;;;6182367;23;20155;-89
2022/01/25 10:55:37;;;;;;;41.00;17.73;;;;;;;;;;6182323;23;20647;-89
2022/01/25 10:58:44;;;;;;;47.97;18.67;;;;;;;;;;6182494;23;20506;-92
2022/01/25 11:01:52;;;;;;;48.93;19.93;;;;;;;;;;6181853;23;20650;-89
2022/01/25 11:05:06;;;;;;;50.77;20.33;;;;;;;;;;6182313;23;20219;-92
2022/01/25 11:08:16;;;;;;;55.17;19.97;;;;;;;;;;6181760;23;20223;-89
2022/01/25 11:11:24;;;;;;;46.60;18.90;;;;;;;;;;6181767;23;20171;-91
2022/01/25 11:14:57;;;;;;;56.87;20.10;;;;;;;;;;6180876;23;20228;-92
2022/01/25 11:18:05;;;;;;;56.87;21.87;;;;;;;;;;6182281;23;20211;-90
2022/01/25 11:21:12;;;;;;;48.97;19.83;;;;;;;;;;6181923;23;20168;-90
2022/01/25 11:24:23;;;;;;;57.77;20.83;;;;;;;;;;6180465;23;20236;-91
2022/01/25 11:27:29;;;;;;;53.83;20.23;;;;;;;;;;6180835;23;20175;-91
2022/01/25 11:30:38;;;;;;;55.53;20.57;;;;;;;;;;6180173;23;20171;-90
2022/01/25 11:33:44;;;;;;;54.03;20.00;;;;;;;;;;6179772;23;20565;-90
2022/01/25 11:36:53;;;;;;;54.23;20.27;;;;;;;;;;6180075;23;20190;-89
2022/01/25 11:39:58;;;;;;;57.40;20.30;;;;;;;;;;6179182;23;20172;-92
2022/01/25 11:43:04;;;;;;;52.87;19.73;;;;;;;;;;6178988;23;20651;-89
2022/01/25 11:46:11;;;;;;;55.87;19.07;;;;;;;;;;6179402;23;20546;-90
2022/01/25 11:49:17;;;;;;;49.73;18.30;;;;;;;;;;6177865;23;20167;-91
2022/01/25 11:52:25;;;;;;;57.30;20.17;;;;;;;;;;6177712;23;20203;-89
2022/01/25 11:55:32;;;;;;;48.83;18.23;;;;;;;;;;6180398;23;20240;-90
2022/01/25 11:58:38;;;;;;;55.43;19.43;;;;;;;;;;6181624;23;20168;-91
2022/01/25 12:01:52;;;;;;;48.27;17.37;;;;;;;;;;6179327;23;20195;-90
2022/01/25 12:05:09;;;;;;;48.50;18.00;;;;;;;;;;6179010;23;20180;-93
2022/01/25 12:08:15;;;;;;;48.60;18.27;;;;;;;;;;6180925;23;20194;-92
2022/01/25 12:11:34;;;;;;;47.17;18.30;;;;;;;;;;6180420;23;20161;-91
2022/01/25 12:14:44;;;;;;;49.57;18.83;;;;;;;;;;6179041;23;20176;-90
2022/01/25 12:17:50;;;;;;;48.37;18.03;;;;;;;;;;6179290;23;20404;-91
2022/01/25 12:20:55;;;;;;;54.83;18.63;;;;;;;;;;6181315;23;20503;-93
2022/01/25 12:24:17;;;;;;;49.60;18.43;;;;;;;;;;6180592;23;20171;-91
2022/01/25 12:27:25;;;;;;;52.70;19.47;;;;;;;;;;6181152;23;20187;-92
2022/01/25 12:30:34;;;;;;;51.50;17.60;;;;;;;;;;6180819;23;20207;-91
2022/01/25 12:33:40;;;;;;;49.77;19.17;;;;;;;;;;6182285;23;20167;-91
2022/01/25 12:36:46;;;;;;;49.30;18.47;;;;;;;;;;6184208;23;20171;-90
2022/01/25 12:39:52;;;;;;;49.73;18.60;;;;;;;;;;6181701;23;20175;-91
2022/01/25 12:42:58;;;;;;;54.17;19.67;;;;;;;;;;6182595;23;20191;-92
2022/01/25 12:46:08;;;;;;;52.33;19.23;;;;;;;;;;6183479;23;20184;-92
2022/01/25 12:49:20;;;;;;;50.50;18.83;;;;;;;;;;6184659;23;20163;-91
2022/01/25 12:52:27;;;;;;;42.67;17.13;;;;;;;;;;6181881;23;20172;-90
2022/01/25 12:55:34;;;;;;;59.07;18.73;;;;;;;;;;6181841;23;20183;-90
2022/01/25 12:58:40;;;;;;;48.23;19.27;;;;;;;;;;6182699;23;20176;-90
2022/01/25 13:01:46;;;;;;;49.77;18.60;;;;;;;;;;6183141;23;20176;-91
2022/01/25 13:04:53;;;;;;;47.47;18.67;;;;;;;;;;6181459;23;20233;-93
2022/01/25 13:08:13;;;;;;;53.43;19.63;;;;;;;;;;6180145;23;20253;-90
2022/01/25 13:11:25;;;;;;;48.73;17.73;;;;;;;;;;6180485;23;20164;-91
2022/01/25 13:18:19;;;;;;;50.67;17.80;;;;;;;;;;6183757;23;20155;-90
2022/01/25 13:21:29;;;;;;;103.67;36.23;;;;;;;;;;6190161;23;20192;-89
2022/01/25 13:24:38;;;;;;;118.63;41.83;;;;;;;;;;6188251;23;20167;-88
2022/01/25 13:27:48;;;;;;;46.33;18.50;;;;;;;;;;6186543;23;20172;-91
2022/01/25 13:30:53;;;;;;;46.77;17.67;;;;;;;;;;6184424;23;20171;-90
2022/01/25 13:34:02;;;;;;;48.47;18.60;;;;;;;;;;6183367;23;20225;-89
2022/01/25 13:37:19;;;;;;;49.27;17.90;;;;;;;;;;6183402;23;20580;-88
2022/01/25 13:40:34;;;;;;;50.97;17.17;;;;;;;;;;6181175;23;20168;-90
2022/01/25 13:47:06;;;;;;;49.57;18.67;;;;;;;;;;6191552;23;20627;-91
2022/01/25 13:50:12;;;;;;;55.00;19.33;;;;;;;;;;6189432;23;20171;-91
2022/01/25 13:53:19;;;;;;;44.53;15.60;;;;;;;;;;6183476;23;20269;-89
2022/01/25 13:56:27;;;;;;;38.27;13.63;;;;;;;;;;6185605;23;20183;-92
2022/01/25 13:59:32;;;;;;;32.73;11.77;;;;;;;;;;6184432;23;20167;-89
2022/01/25 14:02:37;;;;;;;32.63;11.67;;;;;;;;;;6184618;23;20212;-90
2022/01/25 14:05:42;;;;;;;29.57;11.37;;;;;;;;;;6183643;23;20175;-91
2022/01/25 14:08:49;;;;;;;38.43;12.30;;;;;;;;;;6182511;23;20178;-91
2022/01/25 14:21:37;;;;;;;37.73;13.67;;;;;;;;;;6182300;23;20187;-91
2022/01/25 14:25:49;;;;;;;36.63;14.10;;;;;;;;;;6183284;23;20224;-92
2022/01/25 14:29:02;;;;;;;31.07;12.03;;;;;;;;;;6183419;23;20167;-91
2022/01/25 14:32:08;;;;;;;28.57;10.87;;;;;;;;;;6183990;23;20243;-90
2022/01/25 14:35:15;;;;;;;37.03;11.87;;;;;;;;;;6183197;23;20183;-90
2022/01/25 14:38:23;;;;;;;39.13;13.40;;;;;;;;;;6181962;23;20199;-91
2022/01/25 14:41:32;;;;;;;39.00;14.33;;;;;;;;;;6182346;23;20249;-91
2022/01/25 14:44:41;;;;;;;37.90;13.03;;;;;;;;;;6182828;23;20163;-90
2022/01/25 14:51:08;;;;;;;39.73;13.93;;;;;;;;;;6183684;23;20168;-91
2022/01/25 14:54:16;;;;;;;37.33;14.03;;;;;;;;;;6185029;23;20227;-89
2022/01/25 14:57:26;;;;;;;36.47;13.90;;;;;;;;;;6183303;23;20224;-92
2022/01/25 15:00:32;;;;;;;41.63;14.33;;;;;;;;;;6185227;23;20172;-91
2022/01/25 15:03:36;;;;;;;42.50;13.67;;;;;;;;;;6183150;23;20194;-91
2022/01/25 15:06:43;;;;;;;38.23;13.40;;;;;;;;;;6186665;23;20211;-92
2022/01/25 15:09:52;;;;;;;33.20;13.63;;;;;;;;;;6182352;23;20191;-92
2022/01/25 15:12:59;;;;;;;50.23;16.50;;;;;;;;;;6180766;23;20216;-91
2022/01/25 15:16:07;;;;;;;40.20;13.50;;;;;;;;;;6182089;23;20168;-90
2022/01/25 15:19:18;;;;;;;37.47;13.40;;;;;;;;;;6184150;23;20156;-91
2022/01/25 15:22:25;;;;;;;37.93;13.97;;;;;;;;;;6187347;23;20280;-92
2022/01/25 15:25:30;;;;;;;38.33;14.50;;;;;;;;;;6183929;23;20171;-91
2022/01/25 15:28:54;;;;;;;40.00;13.87;;;;;;;;;;6185351;23;20184;-91
2022/01/25 15:35:21;;;;;;;39.57;14.03;;;;;;;;;;6182997;23;20635;-90
2022/01/25 15:38:26;;;;;;;42.40;14.70;;;;;;;;;;6180294;23;20176;-91
2022/01/25 15:41:34;;;;;;;36.43;13.57;;;;;;;;;;6184098;23;20254;-90
2022/01/25 15:44:44;;;;;;;40.33;14.33;;;;;;;;;;6183230;23;20159;-91
2022/01/25 15:47:49;;;;;;;41.10;13.17;;;;;;;;;;6180463;23;20188;-91
2022/01/25 15:51:01;;;;;;;41.53;14.33;;;;;;;;;;6184207;23;20239;-91
2022/01/25 15:54:07;;;;;;;38.77;13.93;;;;;;;;;;6182202;23;20229;-92
2022/01/25 15:57:13;;;;;;;39.10;14.47;;;;;;;;;;6184590;23;20219;-91
2022/01/25 16:00:19;;;;;;;39.73;15.60;;;;;;;;;;6182541;23;20191;-91
2022/01/25 16:03:26;;;;;;;45.57;16.07;;;;;;;;;;6183275;23;20195;-93
2022/01/25 16:06:32;;;;;;;44.90;15.60;;;;;;;;;;6184372;23;20171;-90
2022/01/25 16:09:38;;;;;;;43.60;16.10;;;;;;;;;;6184641;23;20187;-92
2022/01/25 16:12:44;;;;;;;45.83;14.97;;;;;;;;;;6187783;23;20171;-91
2022/01/25 16:15:50;;;;;;;45.87;14.87;;;;;;;;;;6186237;23;20604;-92
2022/01/25 16:22:15;;;;;;;50.17;16.30;;;;;;;;;;6187468;23;20172;-92
2022/01/25 16:25:20;;;;;;;49.40;16.43;;;;;;;;;;6185523;23;20172;-92
2022/01/25 16:28:26;;;;;;;53.40;17.70;;;;;;;;;;6184545;23;20220;-92
2022/01/25 16:31:44;;;;;;;53.97;17.93;;;;;;;;;;6186244;23;20238;-91
2022/01/25 16:34:53;;;;;;;55.27;17.70;;;;;;;;;;6186790;23;20251;-91
2022/01/25 16:38:00;;;;;;;51.47;17.50;;;;;;;;;;6188758;23;20184;-87
2022/01/25 16:41:06;;;;;;;54.33;19.73;;;;;;;;;;6183878;23;20163;-92
2022/01/25 16:44:11;;;;;;;57.97;20.03;;;;;;;;;;6183727;23;20179;-91
2022/01/25 16:47:19;;;;;;;61.20;20.30;;;;;;;;;;6185469;23;20171;-91
2022/01/25 16:50:25;;;;;;;57.83;17.97;;;;;;;;;;6185362;23;20180;-94
2022/01/25 16:53:30;;;;;;;49.37;16.87;;;;;;;;;;6184515;23;20167;-93
2022/01/25 16:56:39;;;;;;;51.40;17.00;;;;;;;;;;6185632;23;20172;-91
2022/01/25 16:59:44;;;;;;;51.33;17.60;;;;;;;;;;6186279;23;20160;-93
2022/01/25 17:02:50;;;;;;;55.23;18.40;;;;;;;;;;6186180;23;20186;-92
2022/01/25 17:05:56;;;;;;;53.07;18.03;;;;;;;;;;6184685;23;20227;-90
2022/01/25 17:09:01;;;;;;;50.70;17.83;;;;;;;;;;6184157;23;20198;-90
2022/01/25 17:12:09;;;;;;;54.67;18.43;;;;;;;;;;6184342;23;20148;-91
2022/01/25 17:15:15;;;;;;;46.93;16.67;;;;;;;;;;6183684;23;20522;-90
2022/01/25 17:18:21;;;;;;;47.23;17.13;;;;;;;;;;6184936;23;20688;-92
2022/01/25 17:21:26;;;;;;;47.53;17.00;;;;;;;;;;6182984;23;20176;-91
2022/01/25 17:24:32;;;;;;;44.73;16.53;;;;;;;;;;6185117;23;20199;-92
2022/01/25 17:27:38;;;;;;;48.33;16.87;;;;;;;;;;6183213;23;20604;-92
2022/01/25 17:30:44;;;;;;;49.00;16.77;;;;;;;;;;6184336;23;20622;-92
2022/01/25 17:33:51;;;;;;;51.60;17.67;;;;;;;;;;6184072;23;20183;-91
2022/01/25 17:36:56;;;;;;;44.77;16.07;;;;;;;;;;6187076;23;20171;-90
2022/01/25 17:40:03;;;;;;;54.97;17.37;;;;;;;;;;6187696;23;20179;-91
2022/01/25 17:43:11;;;;;;;46.83;16.33;;;;;;;;;;6188335;23;20210;-92
2022/01/25 17:46:17;;;;;;;43.77;15.20;;;;;;;;;;6184625;23;20152;-90
2022/01/25 17:49:31;;;;;;;48.40;16.30;;;;;;;;;;6187340;23;20179;-92
2022/01/25 17:52:37;;;;;;;42.43;15.00;;;;;;;;;;6185413;23;20168;-92
2022/01/25 17:55:42;;;;;;;45.87;15.70;;;;;;;;;;6186372;23;20204;-93
2022/01/25 17:58:47;;;;;;;49.80;16.30;;;;;;;;;;6186366;23;20172;-93
2022/01/25 18:01:56;;;;;;;48.77;16.03;;;;;;;;;;6182033;23;20171;-91
2022/01/25 18:05:02;;;;;;;46.10;15.40;;;;;;;;;;6182588;23;20187;-93
2022/01/25 18:08:07;;;;;;;45.37;16.07;;;;;;;;;;6181242;23;20338;-90
2022/01/25 18:11:13;;;;;;;42.43;15.13;;;;;;;;;;6182356;23;20175;-90
2022/01/25 18:14:20;;;;;;;48.53;16.00;;;;;;;;;;6183240;23;20288;-92
2022/01/25 18:17:25;;;;;;;38.33;14.87;;;;;;;;;;6183167;23;20159;-91
2022/01/25 18:20:33;;;;;;;41.30;15.37;;;;;;;;;;6182040;23;20219;-90
2022/01/25 18:23:45;;;;;;;42.80;14.87;;;;;;;;;;6183190;23;20191;-91
2022/01/25 18:26:52;;;;;;;51.90;16.47;;;;;;;;;;6183470;23;20167;-92
2022/01/25 18:29:59;;;;;;;47.13;16.50;;;;;;;;;;6183302;23;20171;-91
2022/01/25 18:33:05;;;;;;;49.40;16.37;;;;;;;;;;6184206;23;20220;-91
2022/01/25 18:36:12;;;;;;;44.27;15.47;;;;;;;;;;6184481;23;20239;-89
2022/01/25 18:39:19;;;;;;;47.87;16.57;;;;;;;;;;6185639;23;20243;-90
2022/01/25 18:42:24;;;;;;;42.47;15.30;;;;;;;;;;6182497;23;20196;-92
2022/01/25 18:45:29;;;;;;;45.67;15.57;;;;;;;;;;6183253;23;20175;-91
2022/01/25 18:48:36;;;;;;;45.73;16.10;;;;;;;;;;6182054;23;20163;-90
2022/01/25 18:51:43;;;;;;;50.50;16.90;;;;;;;;;;6183146;23;20514;-93
2022/01/25 18:54:49;;;;;;;43.53;14.67;;;;;;;;;;6183445;23;20160;-91
2022/01/25 19:01:14;;;;;;;42.27;15.20;;;;;;;;;;6183522;23;20247;-92
2022/01/25 19:04:19;;;;;;;45.47;15.37;;;;;;;;;;6182082;23;20334;-89
2022/01/25 19:07:26;;;;;;;46.53;15.33;;;;;;;;;;6179723;23;20168;-91
2022/01/25 19:10:32;;;;;;;48.90;16.17;;;;;;;;;;6180585;23;20332;-92
2022/01/25 19:17:28;;;;;;;52.90;16.87;;;;;;;;;;6182487;23;20608;-90
2022/01/25 19:20:32;;;;;;;48.03;16.20;;;;;;;;;;6179925;23;20201;-91
2022/01/25 19:23:39;;;;;;;51.47;17.27;;;;;;;;;;6183278;23;20315;-90
2022/01/25 19:26:45;;;;;;;43.87;14.80;;;;;;;;;;6181873;23;20211;-91
2022/01/25 19:29:50;;;;;;;41.83;15.90;;;;;;;;;;6181617;23;20237;-91
2022/01/25 19:33:01;;;;;;;44.33;14.43;;;;;;;;;;6184548;23;20171;-89
2022/01/25 19:36:07;;;;;;;43.47;14.30;;;;;;;;;;6182166;23;20172;-91
2022/01/25 19:39:14;;;;;;;40.13;14.70;;;;;;;;;;6182774;23;20244;-89
2022/01/25 19:42:22;;;;;;;37.30;13.57;;;;;;;;;;6185467;23;20168;-90
2022/01/25 19:45:28;;;;;;;38.50;14.87;;;;;;;;;;6205096;23;20186;-91
2022/01/25 19:48:36;;;;;;;40.43;15.20;;;;;;;;;;6187397;23;20227;-91
2022/01/25 19:51:43;;;;;;;41.23;15.33;;;;;;;;;;6188628;23;20172;-91
2022/01/25 19:54:52;;;;;;;37.63;13.83;;;;;;;;;;6187080;23;20171;-91
2022/01/25 19:57:57;;;;;;;41.07;14.93;;;;;;;;;;6186989;23;20225;-93
2022/01/25 20:04:23;;;;;;;32.53;12.77;;;;;;;;;;6186705;23;20219;-91
2022/01/25 20:07:28;;;;;;;35.97;13.63;;;;;;;;;;6188856;23;20188;-91
2022/01/25 20:10:37;;;;;;;38.37;14.00;;;;;;;;;;6187058;23;20192;-92
2022/01/25 20:13:46;;;;;;;35.87;12.77;;;;;;;;;;6186532;23;20171;-92
2022/01/25 20:16:51;;;;;;;30.03;12.07;;;;;;;;;;6185823;23;20169;-88
2022/01/25 20:19:58;;;;;;;32.97;12.13;;;;;;;;;;6184418;23;20195;-91
2022/01/25 20:23:11;;;;;;;35.57;12.40;;;;;;;;;;6169799;23;20168;-92
2022/01/25 20:26:24;;;;;;;38.50;12.77;;;;;;;;;;6187687;23;20175;-92
2022/01/25 20:29:37;;;;;;;41.40;13.37;;;;;;;;;;6186433;23;20220;-92
2022/01/25 20:32:44;;;;;;;33.77;12.43;;;;;;;;;;6186621;23;20184;-90